sensor_id;sensor_type;location;lat;lon;timestamp;pressure;altitude;pressure_sealevel;temperature;humidity
42247;BME280;27913;42.722;23.268;2023-04-08T00:03:29;94921.81;;;3.30;76.42
42247;BME280;27913;42.722;23.268;2023-04-08T00:05:55;95095.38;;;4.50;76.47
42247;BME280;27913;42.722;23.268;2023-04-08T00:08:21;94949.97;;;3.62;76.36
42247;BME280;27913;42.722;23.268;2023-04-08T00:10:46;95104.19;;;4.49;76.17
42247;BME280;27913;42.722;23.268;2023-04-08T00:13:12;95107.88;;;4.46;76.31
42247;BME280;27913;42.722;23.268;2023-04-08T00:15:39;95102.53;;;4.48;76.61
42247;BME280;27913;42.722;23.268;2023-04-08T00:18:06;95033.06;;;4.02;77.03
42247;BME280;27913;42.722;23.268;2023-04-08T00:20:31;95080.94;;;4.38;77.34
42247;BME280;27913;42.722;23.268;2023-04-08T00:22:57;95098.59;;;4.44;77.82
42247;BME280;27913;42.722;23.268;2023-04-08T00:25:22;95096.28;;;4.41;78.07
42247;BME280;27913;42.722;23.268;2023-04-08T00:27:48;95101.25;;;4.34;78.77
42247;BME280;27913;42.722;23.268;2023-04-08T00:30:13;95084.56;;;4.27;79.47
42247;BME280;27913;42.722;23.268;2023-04-08T00:32:39;95099.97;;;4.20;79.98
42247;BME280;27913;42.722;23.268;2023-04-08T00:35:05;95004.19;;;3.67;80.16
42247;BME280;27913;42.722;23.268;2023-04-08T00:37:31;95035.34;;;3.77;80.64
42247;BME280;27913;42.722;23.268;2023-04-08T00:39:57;95085.88;;;4.13;80.24
42247;BME280;27913;42.722;23.268;2023-04-08T00:42:22;95102.75;;;4.08;80.26
42247;BME280;27913;42.722;23.268;2023-04-08T00:44:48;94832.44;;;2.36;80.73
42247;BME280;27913;42.722;23.268;2023-04-08T00:47:14;95012.22;;;3.36;81.30
42247;BME280;27913;42.722;23.268;2023-04-08T00:49:41;94881.31;;;2.51;81.93
42247;BME280;27913;42.722;23.268;2023-04-08T00:52:07;95102.28;;;3.85;82.49
42247;BME280;27913;42.722;23.268;2023-04-08T00:54:32;95104.75;;;3.86;82.55
42247;BME280;27913;42.722;23.268;2023-04-08T00:56:58;95087.00;;;3.72;82.50
42247;BME280;27913;42.722;23.268;2023-04-08T00:59:28;95111.47;;;3.79;82.87
42247;BME280;27913;42.722;23.268;2023-04-08T01:02:01;95105.16;;;3.82;82.51
42247;BME280;27913;42.722;23.268;2023-04-08T01:05:03;95098.88;;;3.84;81.53
42247;BME280;27913;42.722;23.268;2023-04-08T01:07:35;95116.50;;;3.91;81.26
42247;BME280;27913;42.722;23.268;2023-04-08T01:10:05;95105.78;;;3.94;80.86
42247;BME280;27913;42.722;23.268;2023-04-08T01:12:39;95096.38;;;3.93;80.15
42247;BME280;27913;42.722;23.268;2023-04-08T01:15:07;95115.34;;;4.03;79.91
42247;BME280;27913;42.722;23.268;2023-04-08T01:17:33;95115.91;;;4.07;79.85
42247;BME280;27913;42.722;23.268;2023-04-08T01:20:02;95079.53;;;3.87;79.68
42247;BME280;27913;42.722;23.268;2023-04-08T01:25:48;95099.16;;;4.09;79.35
42247;BME280;27913;42.722;23.268;2023-04-08T01:28:17;95045.81;;;3.67;79.07
42247;BME280;27913;42.722;23.268;2023-04-08T01:30:43;95103.84;;;4.06;78.79
42247;BME280;27913;42.722;23.268;2023-04-08T01:33:11;95113.69;;;4.12;78.38
42247;BME280;27913;42.722;23.268;2023-04-08T01:35:37;95115.03;;;4.16;78.53
42247;BME280;27913;42.722;23.268;2023-04-08T01:38:06;95110.25;;;4.11;78.94
42247;BME280;27913;42.722;23.268;2023-04-08T01:40:34;94889.34;;;2.68;79.00
42247;BME280;27913;42.722;23.268;2023-04-08T01:43:02;95120.75;;;3.92;79.28
42247;BME280;27913;42.722;23.268;2023-04-08T01:45:29;95115.56;;;3.82;79.84
42247;BME280;27913;42.722;23.268;2023-04-08T01:47:55;95115.84;;;3.79;80.13
42247;BME280;27913;42.722;23.268;2023-04-08T01:50:22;95119.16;;;3.81;80.00
42247;BME280;27913;42.722;23.268;2023-04-08T01:52:50;95063.00;;;3.40;79.87
42247;BME280;27913;42.722;23.268;2023-04-08T01:55:18;95095.09;;;3.69;79.76
42247;BME280;27913;42.722;23.268;2023-04-08T01:57:47;95125.28;;;3.80;79.83
42247;BME280;27913;42.722;23.268;2023-04-08T02:00:16;95128.72;;;3.80;79.72
42247;BME280;27913;42.722;23.268;2023-04-08T02:02:44;94941.41;;;2.66;80.00
42247;BME280;27913;42.722;23.268;2023-04-08T02:05:11;95117.38;;;3.71;80.31
42247;BME280;27913;42.722;23.268;2023-04-08T02:07:36;95080.09;;;3.33;80.15
42247;BME280;27913;42.722;23.268;2023-04-08T02:10:03;95076.13;;;3.29;80.63
42247;BME280;27913;42.722;23.268;2023-04-08T02:12:28;94999.75;;;2.92;80.37
42247;BME280;27913;42.722;23.268;2023-04-08T02:14:54;95133.25;;;3.78;80.56
42247;BME280;27913;42.722;23.268;2023-04-08T02:17:32;95092.94;;;3.54;80.40
42247;BME280;27913;42.722;23.268;2023-04-08T02:20:09;95007.28;;;2.95;80.05
42247;BME280;27913;42.722;23.268;2023-04-08T02:22:39;95143.34;;;3.81;80.30
42247;BME280;27913;42.722;23.268;2023-04-08T02:25:12;95138.31;;;3.80;80.13
42247;BME280;27913;42.722;23.268;2023-04-08T02:27:38;95149.69;;;3.79;79.83
42247;BME280;27913;42.722;23.268;2023-04-08T02:30:05;95144.63;;;3.77;79.70
42247;BME280;27913;42.722;23.268;2023-04-08T02:32:32;95107.16;;;3.60;79.72
42247;BME280;27913;42.722;23.268;2023-04-08T02:34:59;95088.69;;;3.43;79.70
42247;BME280;27913;42.722;23.268;2023-04-08T02:37:27;95103.19;;;3.56;79.75
42247;BME280;27913;42.722;23.268;2023-04-08T02:39:53;95137.34;;;3.81;79.97
42247;BME280;27913;42.722;23.268;2023-04-08T02:42:18;95137.22;;;3.82;79.68
42247;BME280;27913;42.722;23.268;2023-04-08T02:44:44;95136.91;;;3.85;79.31
42247;BME280;27913;42.722;23.268;2023-04-08T02:47:09;95138.59;;;3.86;79.52
42247;BME280;27913;42.722;23.268;2023-04-08T02:49:35;95137.47;;;3.89;79.82
42247;BME280;27913;42.722;23.268;2023-04-08T02:52:01;95001.50;;;3.11;79.68
42247;BME280;27913;42.722;23.268;2023-04-08T02:54:26;95130.78;;;3.86;79.44
42247;BME280;27913;42.722;23.268;2023-04-08T02:56:52;95134.19;;;3.87;80.11
42247;BME280;27913;42.722;23.268;2023-04-08T02:59:17;95133.78;;;3.92;80.38
42247;BME280;27913;42.722;23.268;2023-04-08T03:01:43;95123.63;;;3.89;80.60
42247;BME280;27913;42.722;23.268;2023-04-08T03:04:08;95143.75;;;3.96;80.29
42247;BME280;27913;42.722;23.268;2023-04-08T03:06:34;95140.69;;;4.01;80.02
42247;BME280;27913;42.722;23.268;2023-04-08T03:09:00;95138.78;;;4.03;79.17
42247;BME280;27913;42.722;23.268;2023-04-08T03:11:25;95145.22;;;3.99;79.46
42247;BME280;27913;42.722;23.268;2023-04-08T03:13:51;95134.44;;;3.94;79.15
42247;BME280;27913;42.722;23.268;2023-04-08T03:16:16;95143.63;;;3.88;79.41
42247;BME280;27913;42.722;23.268;2023-04-08T03:18:42;95138.97;;;3.82;79.41
42247;BME280;27913;42.722;23.268;2023-04-08T03:21:07;95128.72;;;3.80;80.97
42247;BME280;27913;42.722;23.268;2023-04-08T03:23:33;94965.31;;;2.80;81.06
42247;BME280;27913;42.722;23.268;2023-04-08T03:25:58;94894.31;;;2.31;81.00
42247;BME280;27913;42.722;23.268;2023-04-08T03:28:24;95074.47;;;3.37;81.29
42247;BME280;27913;42.722;23.268;2023-04-08T03:30:49;95006.69;;;3.01;81.94
42247;BME280;27913;42.722;23.268;2023-04-08T03:33:15;95137.38;;;3.71;82.16
42247;BME280;27913;42.722;23.268;2023-04-08T03:35:40;95152.44;;;3.77;82.15
42247;BME280;27913;42.722;23.268;2023-04-08T03:38:06;95141.44;;;3.83;81.88
42247;BME280;27913;42.722;23.268;2023-04-08T03:40:31;95141.44;;;3.83;81.92
42247;BME280;27913;42.722;23.268;2023-04-08T03:42:56;94954.94;;;2.70;81.44
42247;BME280;27913;42.722;23.268;2023-04-08T03:45:22;95138.44;;;3.88;81.48
42247;BME280;27913;42.722;23.268;2023-04-08T03:47:47;95149.66;;;3.89;80.92
42247;BME280;27913;42.722;23.268;2023-04-08T03:50:13;95123.81;;;3.77;81.10
42247;BME280;27913;42.722;23.268;2023-04-08T03:52:39;95142.56;;;3.81;80.81
42247;BME280;27913;42.722;23.268;2023-04-08T03:55:04;95137.50;;;3.79;81.11
42247;BME280;27913;42.722;23.268;2023-04-08T03:57:30;95087.47;;;3.47;81.23
42247;BME280;27913;42.722;23.268;2023-04-08T03:59:56;95147.66;;;3.72;81.66
42247;BME280;27913;42.722;23.268;2023-04-08T04:02:22;94901.03;;;2.14;81.76
42247;BME280;27913;42.722;23.268;2023-04-08T04:04:47;95119.75;;;3.55;82.83
42247;BME280;27913;42.722;23.268;2023-04-08T04:07:13;94944.31;;;2.33;83.45
42247;BME280;27913;42.722;23.268;2023-04-08T04:09:38;95146.75;;;3.44;84.87
42247;BME280;27913;42.722;23.268;2023-04-08T04:12:04;95127.84;;;3.42;84.91
42247;BME280;27913;42.722;23.268;2023-04-08T04:14:29;95144.13;;;3.44;84.73
42247;BME280;27913;42.722;23.268;2023-04-08T04:16:55;95013.03;;;2.59;84.92
42247;BME280;27913;42.722;23.268;2023-04-08T04:19:20;95156.16;;;3.45;84.53
42247;BME280;27913;42.722;23.268;2023-04-08T04:21:46;95129.53;;;3.23;84.40
42247;BME280;27913;42.722;23.268;2023-04-08T04:24:11;95023.44;;;2.69;84.39
42247;BME280;27913;42.722;23.268;2023-04-08T04:26:39;95157.69;;;3.47;84.26
42247;BME280;27913;42.722;23.268;2023-04-08T04:29:06;95159.88;;;3.42;85.12
42247;BME280;27913;42.722;23.268;2023-04-08T04:31:31;95160.69;;;3.43;85.45
42247;BME280;27913;42.722;23.268;2023-04-08T04:33:57;95164.09;;;3.43;85.77
42247;BME280;27913;42.722;23.268;2023-04-08T04:36:22;95141.94;;;3.29;86.05
42247;BME280;27913;42.722;23.268;2023-04-08T04:38:49;95048.16;;;2.73;87.03
42247;BME280;27913;42.722;23.268;2023-04-08T04:41:15;95159.88;;;3.42;87.49
42247;BME280;27913;42.722;23.268;2023-04-08T04:43:41;95163.28;;;3.43;88.29
42247;BME280;27913;42.722;23.268;2023-04-08T04:46:06;95164.25;;;3.42;88.73
42247;BME280;27913;42.722;23.268;2023-04-08T04:48:33;94899.91;;;1.77;88.85
42247;BME280;27913;42.722;23.268;2023-04-08T04:51:00;95164.81;;;3.35;88.72
42247;BME280;27913;42.722;23.268;2023-04-08T04:53:27;95161.09;;;3.38;88.56
42247;BME280;27913;42.722;23.268;2023-04-08T04:55:53;95161.38;;;3.35;88.30
42247;BME280;27913;42.722;23.268;2023-04-08T04:58:19;95161.91;;;3.29;87.87
42247;BME280;27913;42.722;23.268;2023-04-08T05:00:44;95161.38;;;3.35;87.35
42247;BME280;27913;42.722;23.268;2023-04-08T05:03:11;95060.47;;;2.81;87.11
42247;BME280;27913;42.722;23.268;2023-04-08T05:05:37;94951.53;;;2.10;86.84
42247;BME280;27913;42.722;23.268;2023-04-08T05:08:02;95174.22;;;3.46;86.91
42247;BME280;27913;42.722;23.268;2023-04-08T05:10:28;95131.16;;;3.34;86.59
42247;BME280;27913;42.722;23.268;2023-04-08T05:12:53;95052.41;;;2.84;86.41
42247;BME280;27913;42.722;23.268;2023-04-08T05:15:19;95166.56;;;3.55;86.64
42247;BME280;27913;42.722;23.268;2023-04-08T05:17:45;95126.34;;;3.29;86.82
42247;BME280;27913;42.722;23.268;2023-04-08T05:20:10;95166.69;;;3.63;86.50
42247;BME280;27913;42.722;23.268;2023-04-08T05:22:36;94903.22;;;2.09;85.91
42247;BME280;27913;42.722;23.268;2023-04-08T05:25:02;95170.06;;;3.83;85.73
42247;BME280;27913;42.722;23.268;2023-04-08T05:27:27;94899.09;;;2.26;84.90
42247;BME280;27913;42.722;23.268;2023-04-08T05:29:53;95039.09;;;3.17;84.45
42247;BME280;27913;42.722;23.268;2023-04-08T05:32:18;95123.69;;;3.69;84.87
42247;BME280;27913;42.722;23.268;2023-04-08T05:34:44;95175.13;;;3.95;84.75
42247;BME280;27913;42.722;23.268;2023-04-08T05:37:10;94893.25;;;2.34;84.11
42247;BME280;27913;42.722;23.268;2023-04-08T05:39:35;95163.19;;;4.02;84.04
42247;BME280;27913;42.722;23.268;2023-04-08T05:42:01;95169.97;;;4.13;83.69
42247;BME280;27913;42.722;23.268;2023-04-08T05:44:26;95176.94;;;4.22;83.10
42247;BME280;27913;42.722;23.268;2023-04-08T05:46:52;95173.91;;;4.27;82.79
42247;BME280;27913;42.722;23.268;2023-04-08T05:49:18;95168.53;;;4.39;82.84
42247;BME280;27913;42.722;23.268;2023-04-08T05:51:44;95174.50;;;4.49;82.39
42247;BME280;27913;42.722;23.268;2023-04-08T05:54:10;95165.00;;;4.58;82.09
42247;BME280;27913;42.722;23.268;2023-04-08T05:56:35;95146.53;;;4.51;81.19
42247;BME280;27913;42.722;23.268;2023-04-08T05:59:01;95167.75;;;4.56;80.47
42247;BME280;27913;42.722;23.268;2023-04-08T06:01:26;94906.63;;;2.97;80.23
42247;BME280;27913;42.722;23.268;2023-04-08T06:03:52;95166.91;;;4.56;80.32
42247;BME280;27913;42.722;23.268;2023-04-08T06:06:17;95171.31;;;4.55;80.42
42247;BME280;27913;42.722;23.268;2023-04-08T06:08:43;95162.84;;;4.53;80.52
42247;BME280;27913;42.722;23.268;2023-04-08T06:11:08;94998.34;;;3.55;80.21
42247;BME280;27913;42.722;23.268;2023-04-08T06:13:34;95065.22;;;4.01;80.83
42247;BME280;27913;42.722;23.268;2023-04-08T06:16:12;95158.66;;;4.61;80.06
42247;BME280;27913;42.722;23.268;2023-04-08T06:18:37;95064.44;;;4.01;79.90
42247;BME280;27913;42.722;23.268;2023-04-08T06:21:03;95145.56;;;4.52;79.82
42247;BME280;27913;42.722;23.268;2023-04-08T06:23:29;95078.72;;;4.15;79.60
42247;BME280;27913;42.722;23.268;2023-04-08T06:25:54;95162.28;;;4.78;79.59
42247;BME280;27913;42.722;23.268;2023-04-08T06:28:20;95125.78;;;4.59;79.16
42247;BME280;27913;42.722;23.268;2023-04-08T06:30:45;95137.63;;;4.72;78.84
42247;BME280;27913;42.722;23.268;2023-04-08T06:33:11;95167.13;;;4.91;79.15
42247;BME280;27913;42.722;23.268;2023-04-08T06:35:36;95161.75;;;4.92;79.37
42247;BME280;27913;42.722;23.268;2023-04-08T06:38:02;95151.94;;;4.86;79.45
42247;BME280;27913;42.722;23.268;2023-04-08T06:40:28;95099.28;;;4.64;79.38
42247;BME280;27913;42.722;23.268;2023-04-08T06:42:53;94951.66;;;3.82;78.74
42247;BME280;27913;42.722;23.268;2023-04-08T06:45:19;95158.50;;;5.27;78.01
42247;BME280;27913;42.722;23.268;2023-04-08T06:47:44;95164.81;;;5.42;77.48
42247;BME280;27913;42.722;23.268;2023-04-08T06:50:10;95145.06;;;5.40;76.70
42247;BME280;27913;42.722;23.268;2023-04-08T06:52:35;95159.47;;;5.44;76.73
42247;BME280;27913;42.722;23.268;2023-04-08T06:55:01;95164.50;;;5.64;76.49
42247;BME280;27913;42.722;23.268;2023-04-08T06:57:26;95163.94;;;5.78;76.54
42247;BME280;27913;42.722;23.268;2023-04-08T06:59:52;95163.78;;;5.80;76.00
42247;BME280;27913;42.722;23.268;2023-04-08T07:02:18;95049.69;;;5.11;76.33
42247;BME280;27913;42.722;23.268;2023-04-08T07:04:43;95160.78;;;5.93;76.18
42247;BME280;27913;42.722;23.268;2023-04-08T07:07:09;95170.91;;;5.96;75.85
42247;BME280;27913;42.722;23.268;2023-04-08T07:09:34;95171.41;;;6.00;75.45
42247;BME280;27913;42.722;23.268;2023-04-08T07:12:01;95020.69;;;5.14;75.33
42247;BME280;27913;42.722;23.268;2023-04-08T07:14:28;95148.72;;;5.92;75.07
42247;BME280;27913;42.722;23.268;2023-04-08T07:16:54;95170.88;;;6.14;75.05
42247;BME280;27913;42.722;23.268;2023-04-08T07:19:20;95173.72;;;6.30;75.13
42247;BME280;27913;42.722;23.268;2023-04-08T07:21:47;95177.69;;;6.42;74.75
42247;BME280;27913;42.722;23.268;2023-04-08T07:24:12;95092.78;;;6.03;74.52
42247;BME280;27913;42.722;23.268;2023-04-08T07:26:38;95144.22;;;6.37;73.75
42247;BME280;27913;42.722;23.268;2023-04-08T07:29:03;95175.53;;;6.72;73.72
42247;BME280;27913;42.722;23.268;2023-04-08T07:31:29;95175.53;;;6.72;73.16
42247;BME280;27913;42.722;23.268;2023-04-08T07:33:55;95057.69;;;5.97;72.94
42247;BME280;27913;42.722;23.268;2023-04-08T07:36:21;95186.16;;;6.79;72.94
42247;BME280;27913;42.722;23.268;2023-04-08T07:38:46;95191.25;;;6.81;72.70
42247;BME280;27913;42.722;23.268;2023-04-08T07:41:12;95190.63;;;6.87;72.58
42247;BME280;27913;42.722;23.268;2023-04-08T07:43:37;95027.81;;;5.91;72.40
42247;BME280;27913;42.722;23.268;2023-04-08T07:46:04;95192.59;;;7.01;72.24
42247;BME280;27913;42.722;23.268;2023-04-08T07:48:30;95168.41;;;6.91;71.75
42247;BME280;27913;42.722;23.268;2023-04-08T07:50:56;95191.50;;;7.12;72.17
42247;BME280;27913;42.722;23.268;2023-04-08T07:53:22;95198.53;;;7.20;71.97
42247;BME280;27913;42.722;23.268;2023-04-08T07:55:48;95111.03;;;6.73;71.52
42247;BME280;27913;42.722;23.268;2023-04-08T07:58:14;95199.06;;;7.32;71.45
42247;BME280;27913;42.722;23.268;2023-04-08T08:00:39;95048.53;;;6.36;71.26
42247;BME280;27913;42.722;23.268;2023-04-08T08:03:05;95210.47;;;7.31;71.43
42247;BME280;27913;42.722;23.268;2023-04-08T08:05:30;95217.03;;;7.27;71.51
42247;BME280;27913;42.722;23.268;2023-04-08T08:07:56;95223.88;;;7.28;71.52
42247;BME280;27913;42.722;23.268;2023-04-08T08:10:21;95179.06;;;7.15;71.61
42247;BME280;27913;42.722;23.268;2023-04-08T08:12:47;95176.97;;;7.27;71.68
42247;BME280;27913;42.722;23.268;2023-04-08T08:15:12;95195.59;;;7.40;72.03
42247;BME280;27913;42.722;23.268;2023-04-08T08:17:38;95197.56;;;7.38;72.22
42247;BME280;27913;42.722;23.268;2023-04-08T08:20:04;95192.16;;;7.31;72.95
42247;BME280;27913;42.722;23.268;2023-04-08T08:22:31;95196.75;;;7.37;72.72
42247;BME280;27913;42.722;23.268;2023-04-08T08:24:57;95200.03;;;7.40;73.02
42247;BME280;27913;42.722;23.268;2023-04-08T08:27:22;95199.22;;;7.39;72.82
42247;BME280;27913;42.722;23.268;2023-04-08T08:29:48;95207.69;;;7.24;73.22
42247;BME280;27913;42.722;23.268;2023-04-08T08:32:13;95200.66;;;7.33;73.54
42247;BME280;27913;42.722;23.268;2023-04-08T08:34:39;95204.44;;;7.39;73.74
42247;BME280;27913;42.722;23.268;2023-04-08T08:37:04;95207.56;;;7.59;73.50
42247;BME280;27913;42.722;23.268;2023-04-08T08:39:30;95017.69;;;6.48;72.47
42247;BME280;27913;42.722;23.268;2023-04-08T08:41:56;95051.22;;;6.86;71.42
42247;BME280;27913;42.722;23.268;2023-04-08T08:44:22;95163.91;;;7.52;71.12
42247;BME280;27913;42.722;23.268;2023-04-08T08:46:47;95194.66;;;7.75;71.62
42247;BME280;27913;42.722;23.268;2023-04-08T08:49:13;95196.78;;;7.79;71.21
42247;BME280;27913;42.722;23.268;2023-04-08T08:51:39;95194.13;;;7.96;70.77
42247;BME280;27913;42.722;23.268;2023-04-08T08:54:06;94998.13;;;6.86;70.36
42247;BME280;27913;42.722;23.268;2023-04-08T08:56:32;95108.94;;;7.60;69.23
42247;BME280;27913;42.722;23.268;2023-04-08T08:58:58;95134.75;;;7.80;69.15
42247;BME280;27913;42.722;23.268;2023-04-08T09:01:35;95208.50;;;8.25;68.88
42247;BME280;27913;42.722;23.268;2023-04-08T09:04:12;95146.19;;;7.95;68.72
42247;BME280;27913;42.722;23.268;2023-04-08T09:06:39;95202.25;;;8.34;68.75
42247;BME280;27913;42.722;23.268;2023-04-08T09:09:05;95150.06;;;8.16;68.98
42247;BME280;27913;42.722;23.268;2023-04-08T09:11:34;95185.81;;;8.49;68.36
42247;BME280;27913;42.722;23.268;2023-04-08T09:14:00;95202.38;;;8.58;67.99
42247;BME280;27913;42.722;23.268;2023-04-08T09:16:25;95051.97;;;7.70;67.43
42247;BME280;27913;42.722;23.268;2023-04-08T09:18:52;95102.06;;;8.16;67.48
42247;BME280;27913;42.722;23.268;2023-04-08T09:21:21;94977.31;;;7.34;66.72
42247;BME280;27913;42.722;23.268;2023-04-08T09:23:49;95144.31;;;8.21;66.93
42247;BME280;27913;42.722;23.268;2023-04-08T09:26:17;94981.91;;;7.24;68.12
42247;BME280;27913;42.722;23.268;2023-04-08T09:28:59;95194.31;;;8.68;67.63
42247;BME280;27913;42.722;23.268;2023-04-08T09:31:27;95068.22;;;8.06;67.54
42247;BME280;27913;42.722;23.268;2023-04-08T09:33:55;95171.44;;;8.85;66.83
42247;BME280;27913;42.722;23.268;2023-04-08T09:36:20;95200.56;;;8.99;66.39
42247;BME280;27913;42.722;23.268;2023-04-08T09:38:46;95194.22;;;9.16;66.39
42247;BME280;27913;42.722;23.268;2023-04-08T09:41:16;95133.91;;;8.85;65.80
42247;BME280;27913;42.722;23.268;2023-04-08T09:43:53;95186.19;;;9.18;65.51
42247;BME280;27913;42.722;23.268;2023-04-08T09:46:27;95152.19;;;9.01;65.96
42247;BME280;27913;42.722;23.268;2023-04-08T09:51:32;95063.22;;;8.68;66.25
42247;BME280;27913;42.722;23.268;2023-04-08T09:54:02;95174.84;;;9.26;65.78
42247;BME280;27913;42.722;23.268;2023-04-08T09:56:43;95118.81;;;8.87;65.33
42247;BME280;27913;42.722;23.268;2023-04-08T09:59:13;95172.88;;;9.20;65.57
42247;BME280;27913;42.722;23.268;2023-04-08T10:01:49;95109.97;;;8.88;65.84
42247;BME280;27913;42.722;23.268;2023-04-08T10:04:19;95062.56;;;8.66;65.71
42247;BME280;27913;42.722;23.268;2023-04-08T10:06:51;95099.72;;;9.01;65.83
42247;BME280;27913;42.722;23.268;2023-04-08T10:09:21;95166.34;;;9.39;64.16
42247;BME280;27913;42.722;23.268;2023-04-08T10:11:47;95160.47;;;9.37;63.62
42247;BME280;27913;42.722;23.268;2023-04-08T10:14:13;94932.72;;;8.00;63.12
42247;BME280;27913;42.722;23.268;2023-04-08T10:16:38;95108.47;;;9.17;63.83
42247;BME280;27913;42.722;23.268;2023-04-08T10:19:38;95093.91;;;9.29;69.21
42247;BME280;27913;42.722;23.268;2023-04-08T10:27:42;95146.88;;;9.72;62.82
42247;BME280;27913;42.722;23.268;2023-04-08T10:32:53;95099.53;;;9.65;61.78
42247;BME280;27913;42.722;23.268;2023-04-08T10:35:37;94916.66;;;8.50;62.23
42247;BME280;27913;42.722;23.268;2023-04-08T10:38:06;95033.03;;;9.34;62.18
42247;BME280;27913;42.722;23.268;2023-04-08T10:40:36;95124.72;;;9.89;61.86
